地図

経路データ

SID SEASON NUMBER BASIN SUBBASIN NAME ISO_TIME NATURE LAT LON WMO_WIND WMO_PRES WMO_AGENCY TRACK_TYPE DIST2LAND LANDFALL IFLAG USA_AGENCY USA_ATCF_ID USA_LAT USA_LON USA_RECORD USA_STATUS USA_WIND USA_PRES USA_SSHS USA_R34_NE USA_R34_SE USA_R34_SW USA_R34_NW USA_R50_NE USA_R50_SE USA_R50_SW USA_R50_NW USA_R64_NE USA_R64_SE USA_R64_SW USA_R64_NW USA_POCI USA_ROCI USA_RMW USA_EYE TOKYO_LAT TOKYO_LON TOKYO_GRADE TOKYO_WIND TOKYO_PRES TOKYO_R50_DIR TOKYO_R50_LONG TOKYO_R50_SHORT TOKYO_R30_DIR TOKYO_R30_LONG TOKYO_R30_SHORT TOKYO_LAND CMA_LAT CMA_LON CMA_CAT CMA_WIND CMA_PRES HKO_LAT HKO_LON HKO_CAT HKO_WIND HKO_PRES NEWDELHI_LAT NEWDELHI_LON NEWDELHI_GRADE NEWDELHI_WIND NEWDELHI_PRES NEWDELHI_CI NEWDELHI_DP NEWDELHI_POCI REUNION_LAT REUNION_LON REUNION_TYPE REUNION_WIND REUNION_PRES REUNION_TNUM REUNION_CI REUNION_RMW REUNION_R34_NE REUNION_R34_SE REUNION_R34_SW REUNION_R34_NW REUNION_R50_NE REUNION_R50_SE REUNION_R50_SW REUNION_R50_NW REUNION_R64_NE REUNION_R64_SE REUNION_R64_SW REUNION_R64_NW BOM_LAT BOM_LON BOM_TYPE BOM_WIND BOM_PRES BOM_TNUM BOM_CI BOM_RMW BOM_R34_NE BOM_R34_SE BOM_R34_SW BOM_R34_NW BOM_R50_NE BOM_R50_SE BOM_R50_SW BOM_R50_NW BOM_R64_NE BOM_R64_SE BOM_R64_SW BOM_R64_NW BOM_ROCI BOM_POCI BOM_EYE BOM_POS_METHOD BOM_PRES_METHOD NADI_LAT NADI_LON NADI_CAT NADI_WIND NADI_PRES WELLINGTON_LAT WELLINGTON_LON WELLINGTON_WIND WELLINGTON_PRES DS824_LAT DS824_LON DS824_STAGE DS824_WIND DS824_PRES TD9636_LAT TD9636_LON TD9636_STAGE TD9636_WIND TD9636_PRES TD9635_LAT TD9635_LON TD9635_WIND TD9635_PRES TD9635_ROCI NEUMANN_LAT NEUMANN_LON NEUMANN_CLASS NEUMANN_WIND NEUMANN_PRES MLC_LAT MLC_LON MLC_CLASS MLC_WIND MLC_PRES USA_GUST BOM_GUST BOM_GUST_PER REUNION_GUST REUNION_GUST_PER USA_SEAHGT USA_SEARAD_NE USA_SEARAD_SE USA_SEARAD_SW USA_SEARAD_NW STORM_SPEED STORM_DIR
1892242N18087 1892 34 NI BB NOT_NAMED 1892-08-29 00:00:00 TS 18.4000 86.6000 main 175 172 _________O____ -1 18.4000 86.6000 TC 30 2 295
1892242N18087 1892 34 NI BB NOT_NAMED 1892-08-29 03:00:00 TS 18.4333 86.5250 main 172 158 _________PO___ -1 18.4500 86.4875 TC 30 18.4000 86.6000 1 2 299
1892242N18087 1892 34 NI BB NOT_NAMED 1892-08-29 06:00:00 TS 18.4819 86.4445 main 158 158 _________OP___ -1 18.5000 86.4000 TC 30 18.4548 86.5111 1 2 306
1892242N18087 1892 34 NI BB NOT_NAMED 1892-08-29 09:00:00 TS 18.5318 86.3833 main 158 144 _________PP___ -1 18.5500 86.3500 TC 30 18.5077 86.4278 1 1 311
1892242N18087 1892 34 NI BB NOT_NAMED 1892-08-29 12:00:00 TS 18.5783 86.3278 main 144 144 _________OP___ -1 18.6000 86.3000 TC 30 18.5567 86.3556 1 2 306
1892242N18087 1892 34 NI BB NOT_NAMED 1892-08-29 15:00:00 TS 18.6213 86.2500 main 144 130 _________PO___ -1 18.6425 86.2000 TC 30 18.6000 86.3000 1 2 304
1892242N18087 1892 34 NI BB NOT_NAMED 1892-08-29 18:00:00 TS 18.6696 86.1806 main 130 130 _________OP___ -1 18.7000 86.1000 TC 30 18.6392 86.2612 1 1 317
1892242N18087 1892 34 NI BB NOT_NAMED 1892-08-29 21:00:00 TS 18.7298 86.1483 main 124 115 _________PP___ -1 18.7699 86.0798 TC 30 18.6897 86.2168 1 2 327
1892242N18087 1892 34 NI BB NOT_NAMED 1892-08-30 00:00:00 TS 18.8352 86.0696 main 115 85 _________OP___ -1 18.9000 86.0000 TC 30 18.7703 86.1391 1 4 317
1892242N18087 1892 34 NI BB NOT_NAMED 1892-08-30 03:00:00 TS 19.0138 85.8688 main 85 49 _________PO___ -1 19.1276 85.7376 TC 30 18.9000 86.0000 1 6 312
1892242N18087 1892 34 NI BB NOT_NAMED 1892-08-30 06:00:00 TS 19.2520 85.5765 main 39 10 _________OP___ -1 19.4000 85.4000 TC 30 19.1041 85.7530 1 8 311
1892242N18087 1892 34 NI BB NOT_NAMED 1892-08-30 09:00:00 TS 19.5065 85.2691 main 10 0 _________PP___ -1 19.6575 85.0925 TC 30 19.3555 85.4458 1 8 311
1892242N18087 1892 34 NI BB NOT_NAMED 1892-08-30 12:00:00 TS 19.7646 84.9578 main 0 0 _________OP___ -1 19.9000 84.8000 TC 30 19.6291 85.1155 1 8 311
1892242N18087 1892 34 NI BB NOT_NAMED 1892-08-30 15:00:00 TS 20.0000 84.6674 main 0 0 _________PO___ -1 20.1000 84.5349 TC 30 19.9000 84.8000 1 7 312
1892242N18087 1892 34 NI BB NOT_NAMED 1892-08-30 18:00:00 TS 20.2160 84.4225 main 0 0 _________OP___ -1 20.3000 84.3000 TC 30 20.1320 84.5450 1 6 316
1892242N18087 1892 34 NI BB NOT_NAMED 1892-08-30 21:00:00 TS 20.4499 84.1985 main 0 0 _________PP___ -1 20.5425 84.0850 TC 30 20.3573 84.3121 1 6 320
1892242N18087 1892 34 NI BB NOT_NAMED 1892-08-31 00:00:00 TS 20.6895 83.9991 main 0 0 _________OP___ -1 20.8000 83.9000 TC 30 20.5789 84.0982 1 6 324
1892242N18087 1892 34 NI BB NOT_NAMED 1892-08-31 03:00:00 TS 20.9287 83.8250 main 0 0 _________PO___ -1 21.0574 83.7499 TC 30 20.8000 83.9000 1 6 326
1892242N18087 1892 34 NI BB NOT_NAMED 1892-08-31 06:00:00 TS 21.1685 83.6552 main 0 0 _________OP___ -1 21.3000 83.6000 TC 30 21.0370 83.7105 1 6 324
1892242N18087 1892 34 NI BB NOT_NAMED 1892-08-31 09:00:00 TS 21.3937 83.4674 main 0 0 _________PP___ -1 21.5150 83.4000 TC 30 21.2723 83.5348 1 6 321
1892242N18087 1892 34 NI BB NOT_NAMED 1892-08-31 12:00:00 TS 21.5982 83.2834 main 0 0 _________OP___ -1 21.7000 83.2000 TC 30 21.4964 83.3668 1 5 320
1892242N18087 1892 34 NI BB NOT_NAMED 1892-08-31 15:00:00 TS 21.7787 83.1249 main 0 0 _________PO___ -1 21.8574 83.0499 TC 30 21.7000 83.2000 1 5 319
1892242N18087 1892 34 NI BB NOT_NAMED 1892-08-31 18:00:00 TS 21.9418 82.9624 main 0 0 _________OP___ -1 22.0000 82.9000 TC 30 21.8837 83.0249 1 5 315
1892242N18087 1892 34 NI BB NOT_NAMED 1892-08-31 21:00:00 TS 22.1012 82.7749 main 0 0 _________PP___ -1 22.1575 82.7000 TC 30 22.0449 82.8499 1 5 311
1892242N18087 1892 34 NI BB NOT_NAMED 1892-09-01 00:00:00 TS 22.2418 82.5875 main 0 0 _________OP___ -1 22.3000 82.5000 TC 30 22.1837 82.6749 1 4 308
1892242N18087 1892 34 NI BB NOT_NAMED 1892-09-01 03:00:00 TS 22.3575 82.4250 main 0 0 _________PO___ -1 22.4149 82.3499 TC 30 22.3000 82.5000 1 4 305
1892242N18087 1892 34 NI BB NOT_NAMED 1892-09-01 06:00:00 TS 22.4503 82.2604 main 0 0 _________OP___ -1 22.5000 82.2000 TC 30 22.4006 82.3208 1 4 296
1892242N18087 1892 34 NI BB NOT_NAMED 1892-09-01 09:00:00 TS 22.5187 82.0712 main 0 0 _________PP___ -1 22.5575 82.0000 TC 30 22.4800 82.1423 1 4 289
1892242N18087 1892 34 NI BB NOT_NAMED 1892-09-01 12:00:00 TS 22.5722 81.8839 main 0 0 _________OP___ -1 22.6000 81.8000 TC 30 22.5444 81.9677 1 3 288
1892242N18087 1892 34 NI BB NOT_NAMED 1892-09-01 15:00:00 TS 22.6250 81.7212 main 0 0 _________PO___ -1 22.6500 81.6425 TC 30 22.6000 81.8000 1 3 290
1892242N18087 1892 34 NI BB NOT_NAMED 1892-09-01 18:00:00 TS 22.6785 81.5734 main 0 0 _________OP___ -1 22.7000 81.5000 TC 30 22.6571 81.6468 1 3 291
1892242N18087 1892 34 NI BB NOT_NAMED 1892-09-01 21:00:00 TS 22.7287 81.4249 main 0 0 _________PP___ -1 22.7500 81.3500 TC 30 22.7074 81.4999 1 3 290
1892242N18087 1892 34 NI BB NOT_NAMED 1892-09-02 00:00:00 TS 22.7770 81.2765 main 0 0 _________OP___ -1 22.8000 81.2000 TC 30 22.7540 81.3530 1 3 289
1892242N18087 1892 34 NI BB NOT_NAMED 1892-09-02 03:00:00 TS 22.8250 81.1287 main 0 0 _________PO___ -1 22.8500 81.0575 TC 30 22.8000 81.2000 1 3 289
1892242N18087 1892 34 NI BB NOT_NAMED 1892-09-02 06:00:00 TS 22.8770 80.9661 main 0 0 _________OP___ -1 22.9000 80.9000 TC 30 22.8540 81.0322 1 3 288
1892242N18087 1892 34 NI BB NOT_NAMED 1892-09-02 09:00:00 TS 22.9287 80.7788 main 0 0 _________PP___ -1 22.9500 80.7000 TC 30 22.9075 80.8575 1 4 286
1892242N18087 1892 34 NI BB NOT_NAMED 1892-09-02 12:00:00 TS 22.9786 80.5895 main 0 0 _________OP___ -1 23.0000 80.5000 TC 30 22.9572 80.6791 1 3 287
1892242N18087 1892 34 NI BB NOT_NAMED 1892-09-02 15:00:00 TS 23.0287 80.4250 main 0 0 _________PO___ -1 23.0574 80.3500 TC 30 23.0000 80.5000 1 3 288
1892242N18087 1892 34 NI BB NOT_NAMED 1892-09-02 18:00:00 TS 23.0678 80.2868 main 0 0 _________OP___ -1 23.1000 80.2000 TC 30 23.0356 80.3737 1 3 283
1892242N18087 1892 34 NI BB NOT_NAMED 1892-09-02 21:00:00 TS 23.0856 80.1462 main 0 0 _________PP___ -1 23.1072 80.0525 TC 30 23.0640 80.2399 1 3 274
1892242N18087 1892 34 NI BB NOT_NAMED 1892-09-03 00:00:00 TS 23.0927 79.9306 main 0 0 _________OP___ -1 23.1000 79.8000 TC 30 23.0854 80.0612 1 5 272
1892242N18087 1892 34 NI BB NOT_NAMED 1892-09-03 03:00:00 TS 23.1001 79.5687 main 0 0 _________PO___ -1 23.1002 79.3375 TC 30 23.1000 79.8000 1 8 271
1892242N18087 1892 34 NI BB NOT_NAMED 1892-09-03 06:00:00 TS 23.1039 79.1056 main 0 0 _________OP___ -1 23.1000 78.8000 TC 30 23.1077 79.4112 1 8 270
1892242N18087 1892 34 NI BB NOT_NAMED 1892-09-03 09:00:00 TS 23.1040 78.6449 main 0 0 _________PP___ -1 23.0997 78.3500 TC 30 23.1082 78.9398 1 9 270
1892242N18087 1892 34 NI BB NOT_NAMED 1892-09-03 12:00:00 TS 23.1022 78.1618 main 0 0 _________OP___ -1 23.1000 77.9000 TC 30 23.1045 78.4236 1 9 270
1892242N18087 1892 34 NI AS NOT_NAMED 1892-09-03 15:00:00 TS 23.1000 77.6500 main 0 0 _________PO___ -1 23.1000 77.4000 TC 30 23.1000 77.9000 1 9 269
1892242N18087 1892 34 NI AS NOT_NAMED 1892-09-03 18:00:00 TS 23.0898 77.1542 main 0 0 _________OP___ -1 23.1000 76.9000 TC 30 23.0796 77.4083 1 9 269
1892242N18087 1892 34 NI AS NOT_NAMED 1892-09-03 21:00:00 TS 23.0774 76.6771 main 0 0 _________PP___ -1 23.0924 76.4349 TC 30 23.0624 76.9193 1 9 269
1892242N18087 1892 34 NI AS NOT_NAMED 1892-09-04 00:00:00 TS 23.0820 76.2229 main 0 0 _________OP___ -1 23.1000 76.0000 TC 30 23.0640 76.4457 1 8 272
1892242N18087 1892 34 NI AS NOT_NAMED 1892-09-04 03:00:00 TS 23.1099 75.7924 main 0 0 _________PO___ -1 23.1199 75.5849 TC 30 23.1000 76.0000 1 8 278
1892242N18087 1892 34 NI AS NOT_NAMED 1892-09-04 06:00:00 TS 23.1883 75.3861 main 0 0 _________OP___ -1 23.2000 75.2000 TC 30 23.1766 75.5722 1 8 287
1892242N18087 1892 34 NI AS NOT_NAMED 1892-09-04 09:00:00 TS 23.3373 75.0015 main 0 0 _________PP___ -1 23.3850 74.8277 TC 30 23.2897 75.1753 1 7 296
1892242N18087 1892 34 NI AS NOT_NAMED 1892-09-04 12:00:00 TS 23.5165 74.6579 main 0 0 _________OP___ -1 23.6000 74.5000 TC 30 23.4330 74.8158 1 7 300
1892242N18087 1892 34 NI AS NOT_NAMED 1892-09-04 15:00:00 TS 23.6712 74.3636 main 0 0 _________PO___ -1 23.7424 74.2273 TC 30 23.6000 74.5000 1 6 303
1892242N18087 1892 34 NI AS NOT_NAMED 1892-09-04 18:00:00 TS 23.8431 74.1018 main 0 0 _________OP___ -1 23.9000 74.0000 TC 30 23.7863 74.2036 1 6 311
1892242N18087 1892 34 NI AS NOT_NAMED 1892-09-04 21:00:00 TS 24.0711 73.8614 main 0 0 _________PP___ -1 24.1500 73.7701 TC 30 23.9922 73.9528 1 6 320
1892242N18087 1892 34 NI AS NOT_NAMED 1892-09-05 00:00:00 TS 24.3010 73.6752 main 0 0 _________OP___ -1 24.4000 73.6000 TC 30 24.2020 73.7505 1 5 327
1892242N18087 1892 34 NI AS NOT_NAMED 1892-09-05 03:00:00 TS 24.4825 73.5637 main 0 0 _________PO___ -1 24.5649 73.5274 TC 30 24.4000 73.6000 1 4 335
1892242N18087 1892 34 NI AS NOT_NAMED 1892-09-05 06:00:00 TS 24.6341 73.4996 main 0 0 _________OP___ -1 24.7000 73.5000 TC 30 24.5682 73.4993 1 3 341
1892242N18087 1892 34 NI AS NOT_NAMED 1892-09-05 09:00:00 TS 24.7861 73.4485 main 0 0 _________PP___ -1 24.8500 73.4500 TC 30 24.7223 73.4470 1 3 345
1892242N18087 1892 34 NI AS NOT_NAMED 1892-09-05 12:00:00 TS 24.9326 73.4106 main 0 0 _________OP___ -1 25.0000 73.4000 TC 30 24.8652 73.4212 1 3 346
1892242N18087 1892 34 NI AS NOT_NAMED 1892-09-05 15:00:00 TS 25.0788 73.3750 main 0 0 _________PO___ -1 25.1575 73.3500 TC 30 25.0000 73.4000 1 3 345
1892242N18087 1892 34 NI AS NOT_NAMED 1892-09-05 18:00:00 TS 25.2026 73.3375 main 0 0 _________OP___ -1 25.3000 73.3000 TC 30 25.1295 73.3655 1 3 342
1892242N18087 1892 34 NI AS NOT_NAMED 1892-09-05 21:00:00 TS 25.3171 73.2907 main 0 0 _________PP___ -1 25.4100 73.2500 TC 30 25.2551 73.3178 1 2 338
1892242N18087 1892 34 NI AS NOT_NAMED 1892-09-06 00:00:00 TS 25.4188 73.2408 main 0 0 _________OP___ -1 25.5000 73.2000 TC 30 25.3782 73.2612 1 2 338
1892242N18087 1892 34 NI AS NOT_NAMED 1892-09-06 03:00:00 NR 25.5000 73.2000 main 0 __________O___ -1 TC 25.5000 73.2000 1 2 337

IBTrACS Databaseについて

本データベースは、米国NOAAが公開する1842年以降の世界の熱帯低気圧のベストトラックデータアーカイブInternational Best Track Archive for Climate Stewardship (IBTrACS)を、ウェブで閲覧しやすい形式に変換したものです。

最終更新日:2021-10-19